createdAt,value
2019-05-06T00:00:01.591Z,13.07
2019-05-06T00:02:30.097Z,11.27
2019-05-06T00:04:58.641Z,9.63
2019-05-06T00:07:27.205Z,10.77
2019-05-06T00:09:55.838Z,13.37
2019-05-06T00:12:24.538Z,9.80
2019-05-06T00:14:54.172Z,9.33
2019-05-06T00:17:23.969Z,9.53
2019-05-06T00:19:53.926Z,9.43
2019-05-06T00:22:23.741Z,10.43
2019-05-06T00:24:59.542Z,10.80
2019-05-06T00:27:44.685Z,9.37
2019-05-06T00:30:14.940Z,9.43
2019-05-06T00:32:44.272Z,9.63
2019-05-06T00:35:14.214Z,9.67
2019-05-06T00:37:44.238Z,11.07
2019-05-06T00:40:14.457Z,10.03
2019-05-06T00:42:44.657Z,11.93
2019-05-06T00:45:13.697Z,13.37
2019-05-06T00:47:44.286Z,12.83
2019-05-06T00:50:14.258Z,14.63
2019-05-06T00:52:44.707Z,12.37
2019-05-06T00:55:13.787Z,14.23
2019-05-06T00:57:45.105Z,10.13
2019-05-06T01:00:15.281Z,9.77
2019-05-06T01:02:44.024Z,11.90
2019-05-06T01:05:14.015Z,10.63
2019-05-06T01:07:43.967Z,14.83
2019-05-06T01:10:14.294Z,13.53
2019-05-06T01:12:44.693Z,13.37
2019-05-06T01:15:18.308Z,10.83
2019-05-06T01:17:46.881Z,15.67
2019-05-06T01:20:15.526Z,15.17
2019-05-06T01:22:44.096Z,16.40
2019-05-06T01:25:14.244Z,11.73
2019-05-06T01:27:44.421Z,13.67
2019-05-06T01:30:13.749Z,11.37
2019-05-06T01:32:43.588Z,17.80
2019-05-06T01:35:14.093Z,12.43
2019-05-06T01:37:44.595Z,12.77
2019-05-06T01:40:27.026Z,13.87
2019-05-06T01:43:03.616Z,14.47
2019-05-06T01:45:32.153Z,11.43
2019-05-06T01:48:00.666Z,12.50
2019-05-06T01:50:29.223Z,15.77
2019-05-06T01:53:00.011Z,12.83
2019-05-06T01:55:28.629Z,13.60
2019-05-06T01:57:57.122Z,13.93
2019-05-06T02:00:25.726Z,13.63
2019-05-06T02:02:54.763Z,15.57
2019-05-06T02:05:24.266Z,15.47
2019-05-06T02:07:54.920Z,15.90
2019-05-06T02:10:23.880Z,15.33
2019-05-06T02:12:54.040Z,14.13
2019-05-06T02:15:23.908Z,17.07
2019-05-06T02:17:54.983Z,16.83
2019-05-06T02:20:24.597Z,16.53
2019-05-06T02:23:04.190Z,12.73
2019-05-06T02:25:34.449Z,16.00
2019-05-06T02:28:03.942Z,14.33
2019-05-06T02:30:37.141Z,14.43
2019-05-06T02:33:15.428Z,10.67
2019-05-06T02:35:47.820Z,14.23
2019-05-06T02:38:32.679Z,15.53
2019-05-06T02:40:53.917Z,12.77
2019-05-06T02:43:23.214Z,12.80
2019-05-06T02:45:53.124Z,13.30
2019-05-06T02:48:39.506Z,13.87
2019-05-06T02:51:09.639Z,13.63
2019-05-06T02:53:38.214Z,12.40
2019-05-06T02:56:06.767Z,13.23
2019-05-06T02:58:35.325Z,13.80
2019-05-06T03:01:04.146Z,16.30
2019-05-06T03:03:33.709Z,12.97
2019-05-06T03:06:03.937Z,13.27
2019-05-06T03:08:33.117Z,12.53
2019-05-06T03:11:03.894Z,14.10
2019-05-06T03:13:33.986Z,15.07
2019-05-06T03:16:05.388Z,12.17
2019-05-06T03:18:32.878Z,12.83
2019-05-06T03:21:13.834Z,12.43
2019-05-06T03:23:43.884Z,12.47
2019-05-06T03:26:13.704Z,12.50
2019-05-06T03:28:44.092Z,14.27
2019-05-06T03:31:16.308Z,12.60
2019-05-06T03:34:03.393Z,15.20
2019-05-06T03:36:18.638Z,11.80
2019-05-06T03:38:43.497Z,13.30
2019-05-06T03:41:13.946Z,14.27
2019-05-06T03:43:43.526Z,13.30
2019-05-06T03:46:14.304Z,15.80
2019-05-06T03:48:47.695Z,14.60
2019-05-06T03:51:16.349Z,16.17
2019-05-06T03:53:45.466Z,14.77
2019-05-06T03:56:19.483Z,18.53
2019-05-06T03:58:45.711Z,17.03
2019-05-06T04:01:15.264Z,19.40
2019-05-06T04:03:48.624Z,18.03
2019-05-06T04:06:14.266Z,16.20
2019-05-06T04:08:44.016Z,12.67
2019-05-06T04:11:15.611Z,14.70
2019-05-06T04:13:45.207Z,13.77
2019-05-06T04:16:30.421Z,14.90
2019-05-06T04:19:13.093Z,17.90
2019-05-06T04:21:43.789Z,14.20
2019-05-06T04:24:17.720Z,16.70
2019-05-06T04:26:47.937Z,14.47
2019-05-06T04:29:16.568Z,15.60
2019-05-06T04:31:45.195Z,15.87
2019-05-06T04:34:19.198Z,15.10
2019-05-06T04:36:44.305Z,15.37
2019-05-06T04:39:13.477Z,14.07
2019-05-06T04:41:43.305Z,14.63
2019-05-06T04:44:13.849Z,11.50
2019-05-06T04:46:44.345Z,13.90
2019-05-06T04:49:15.103Z,13.90
2019-05-06T04:51:43.562Z,18.47
2019-05-06T04:54:13.439Z,13.63
2019-05-06T04:56:43.833Z,16.80
2019-05-06T04:59:13.864Z,16.47
2019-05-06T05:01:45.506Z,16.27
2019-05-06T05:04:24.496Z,13.17
2019-05-06T05:06:45.491Z,13.97
2019-05-06T05:09:17.181Z,13.13
2019-05-06T05:11:53.191Z,13.73
2019-05-06T05:14:26.009Z,11.40
2019-05-06T05:17:04.680Z,16.20
2019-05-06T05:19:33.525Z,14.70
2019-05-06T05:22:08.317Z,13.87
2019-05-06T05:24:37.608Z,16.47
2019-05-06T05:27:06.922Z,14.70
2019-05-06T05:29:35.646Z,19.63
2019-05-06T05:32:04.461Z,18.70
2019-05-06T05:34:40.311Z,16.27
2019-05-06T05:37:03.223Z,14.47
2019-05-06T05:39:33.301Z,14.57
2019-05-06T05:42:03.538Z,14.50
2019-05-06T05:44:34.601Z,13.63
2019-05-06T05:47:03.533Z,16.43
2019-05-06T05:49:50.053Z,14.97
2019-05-06T05:52:18.810Z,17.40
2019-05-06T05:54:47.373Z,15.27
2019-05-06T05:57:17.087Z,13.93
2019-05-06T05:59:45.870Z,15.40
2019-05-06T06:02:14.439Z,19.23
2019-05-06T06:04:54.138Z,18.73
2019-05-06T06:07:13.341Z,17.57
2019-05-06T06:09:43.516Z,17.33
2019-05-06T06:12:12.238Z,18.57
2019-05-06T06:14:43.788Z,22.87
2019-05-06T06:17:32.604Z,18.33
2019-05-06T06:20:02.936Z,23.80
2019-05-06T06:22:33.078Z,19.27
2019-05-06T06:25:04.259Z,22.77
2019-05-06T06:27:33.517Z,17.97
2019-05-06T06:30:02.507Z,19.53
2019-05-06T06:32:32.558Z,21.40
2019-05-06T06:35:14.156Z,17.33
2019-05-06T06:37:43.230Z,17.43
2019-05-06T06:40:13.681Z,19.67
2019-05-06T06:42:42.765Z,20.47
2019-05-06T06:45:12.260Z,18.33
2019-05-06T06:47:42.520Z,18.87
2019-05-06T06:50:12.607Z,17.80
2019-05-06T06:52:42.136Z,19.57
2019-05-06T06:55:12.819Z,20.50
2019-05-06T06:57:59.484Z,18.57
2019-05-06T07:00:38.434Z,18.73
2019-05-06T07:03:14.205Z,16.17
2019-05-06T07:05:44.521Z,16.57
2019-05-06T07:08:13.023Z,15.33
2019-05-06T07:10:44.359Z,14.57
2019-05-06T07:13:14.451Z,13.73
2019-05-06T07:15:43.315Z,13.30
2019-05-06T07:18:13.463Z,16.93
2019-05-06T07:20:59.091Z,13.87
2019-05-06T07:23:29.288Z,10.37
2019-05-06T07:25:57.893Z,9.43
2019-05-06T07:28:26.518Z,8.43
2019-05-06T07:30:55.628Z,9.20
2019-05-06T07:33:24.181Z,10.00
2019-05-06T07:35:53.217Z,9.53
2019-05-06T07:38:23.048Z,9.07
2019-05-06T07:40:53.583Z,9.67
2019-05-06T07:43:41.939Z,8.83
2019-05-06T07:46:12.178Z,11.87
2019-05-06T07:48:42.773Z,9.67
2019-05-06T07:51:12.457Z,9.60
2019-05-06T07:53:42.667Z,12.10
2019-05-06T07:56:12.637Z,10.93
2019-05-06T07:58:43.379Z,11.23
2019-05-06T08:01:13.666Z,12.33
2019-05-06T08:03:42.776Z,8.53
2019-05-06T08:06:13.255Z,8.87
2019-05-06T08:08:43.349Z,8.93
2019-05-06T08:11:12.506Z,11.73
2019-05-06T08:13:43.209Z,9.43
2019-05-06T08:16:13.071Z,12.03
2019-05-06T08:18:42.530Z,11.57
2019-05-06T08:21:15.395Z,9.87
2019-05-06T08:23:45.588Z,11.03
2019-05-06T08:26:17.248Z,10.13
2019-05-06T08:28:44.697Z,9.17
2019-05-06T08:31:13.917Z,10.83
2019-05-06T08:33:43.165Z,8.40
2019-05-06T08:36:14.968Z,7.80
2019-05-06T08:38:55.961Z,12.17
2019-05-06T08:41:25.089Z,9.23
2019-05-06T08:43:53.629Z,8.83
2019-05-06T08:46:23.442Z,11.53
2019-05-06T08:48:52.629Z,6.67
2019-05-06T08:51:33.177Z,9.80
2019-05-06T08:54:03.524Z,8.43
2019-05-06T08:56:32.112Z,10.70
2019-05-06T08:59:03.034Z,8.90
2019-05-06T09:01:32.798Z,10.83
2019-05-06T09:04:11.306Z,9.10
2019-05-06T09:06:34.329Z,7.37
2019-05-06T09:09:02.567Z,5.73
2019-05-06T09:11:32.222Z,8.07
2019-05-06T09:14:03.165Z,6.27
2019-05-06T09:16:33.098Z,7.97
2019-05-06T09:19:04.337Z,6.03
2019-05-06T09:21:33.585Z,6.60
2019-05-06T09:24:02.244Z,7.63
2019-05-06T09:26:32.595Z,7.57
2019-05-06T09:29:14.933Z,13.63
2019-05-06T09:31:52.266Z,10.07
2019-05-06T09:34:23.399Z,6.50
2019-05-06T09:37:09.705Z,7.43
2019-05-06T09:39:38.229Z,9.47
2019-05-06T09:42:06.735Z,5.90
2019-05-06T09:44:35.296Z,8.23
2019-05-06T09:47:05.367Z,7.67
2019-05-06T09:49:35.599Z,7.23
2019-05-06T09:52:04.202Z,6.77
2019-05-06T09:54:36.762Z,7.33
2019-05-06T09:57:07.080Z,6.87
2019-05-06T09:59:35.605Z,6.87
2019-05-06T10:02:04.602Z,7.10
2019-05-06T10:04:33.133Z,8.03
2019-05-06T10:07:02.710Z,8.70
2019-05-06T10:09:32.685Z,5.83
2019-05-06T10:12:02.089Z,11.37
2019-05-06T10:14:32.180Z,9.13
2019-05-06T10:17:04.455Z,7.47
2019-05-06T10:19:32.092Z,5.17
2019-05-06T10:22:00.681Z,7.53
2019-05-06T10:24:29.156Z,5.83
2019-05-06T10:26:59.095Z,5.83
2019-05-06T10:29:32.626Z,6.20
2019-05-06T10:32:14.660Z,6.83
2019-05-06T10:34:43.591Z,4.57
2019-05-06T10:37:27.716Z,5.60
2019-05-06T10:40:14.037Z,7.57
2019-05-06T10:42:48.528Z,4.83
2019-05-06T10:45:23.000Z,4.87
2019-05-06T10:47:51.498Z,5.00
2019-05-06T10:50:22.989Z,5.67
2019-05-06T10:52:53.150Z,3.70
2019-05-06T10:55:23.170Z,4.37
2019-05-06T10:57:53.117Z,5.47
2019-05-06T11:00:23.067Z,4.67
2019-05-06T11:02:56.140Z,4.33
2019-05-06T11:05:24.678Z,5.70
2019-05-06T11:07:53.236Z,6.83
2019-05-06T11:10:27.888Z,4.93
2019-05-06T11:12:52.305Z,7.50
2019-05-06T11:15:23.258Z,6.40
2019-05-06T11:17:51.276Z,7.90
2019-05-06T11:20:19.820Z,7.10
2019-05-06T11:22:48.405Z,4.57
2019-05-06T11:25:17.073Z,6.90
2019-05-06T11:27:45.606Z,7.20
2019-05-06T11:30:16.548Z,6.20
2019-05-06T11:32:46.659Z,7.80
2019-05-06T11:35:16.929Z,6.87
2019-05-06T11:37:50.853Z,9.13
2019-05-06T11:40:17.973Z,7.03
2019-05-06T11:42:46.446Z,6.47
2019-05-06T11:45:15.237Z,7.83
2019-05-06T11:47:43.787Z,10.20
2019-05-06T11:50:13.082Z,9.43
2019-05-06T11:52:43.291Z,6.43
2019-05-06T11:55:12.625Z,5.17
2019-05-06T11:57:44.690Z,5.77
2019-05-06T12:00:18.379Z,5.27
2019-05-06T12:02:48.874Z,6.07
2019-05-06T12:05:17.277Z,8.47
2019-05-06T12:08:00.957Z,8.50
2019-05-06T12:10:16.163Z,10.00
2019-05-06T12:12:44.701Z,6.40
2019-05-06T12:15:13.416Z,6.53
2019-05-06T12:17:42.232Z,5.77
2019-05-06T12:20:13.094Z,8.50
2019-05-06T12:22:42.405Z,6.60
2019-05-06T12:25:15.293Z,6.13
2019-05-06T12:27:44.454Z,8.10
2019-05-06T12:30:19.065Z,6.40
2019-05-06T12:33:04.257Z,8.97
2019-05-06T12:35:34.464Z,5.40
2019-05-06T12:38:06.810Z,8.43
2019-05-06T12:40:34.928Z,5.50
2019-05-06T12:43:22.582Z,7.60
2019-05-06T12:45:53.154Z,5.53
2019-05-06T12:48:23.368Z,5.07
2019-05-06T12:50:52.560Z,5.83
2019-05-06T12:53:23.188Z,5.47
2019-05-06T12:55:52.027Z,4.07
2019-05-06T12:58:23.278Z,4.67
2019-05-06T13:00:53.946Z,3.73
2019-05-06T13:03:23.303Z,3.37
2019-05-06T13:05:52.124Z,3.97
2019-05-06T13:08:22.777Z,3.77
2019-05-06T13:10:52.578Z,6.80
2019-05-06T13:13:22.430Z,5.57
2019-05-06T13:15:52.738Z,4.37
2019-05-06T13:18:23.172Z,4.73
2019-05-06T13:20:52.565Z,5.70
2019-05-06T13:23:25.769Z,3.03
2019-05-06T13:25:53.319Z,4.10
2019-05-06T13:28:23.485Z,5.03
2019-05-06T13:30:53.123Z,3.87
2019-05-06T13:33:34.189Z,4.10
2019-05-06T13:36:02.520Z,3.77
2019-05-06T13:38:32.075Z,4.77
2019-05-06T13:41:03.096Z,3.83
2019-05-06T13:43:38.530Z,4.50
2019-05-06T13:46:09.308Z,3.33
2019-05-06T13:48:42.767Z,2.57
2019-05-06T13:51:27.770Z,3.40
2019-05-06T13:53:56.238Z,4.93
2019-05-06T13:56:24.797Z,4.97
2019-05-06T13:58:53.697Z,4.83
2019-05-06T14:01:23.968Z,5.80
2019-05-06T14:03:52.547Z,2.47
2019-05-06T14:06:21.045Z,2.73
2019-05-06T14:08:49.577Z,3.60
2019-05-06T14:11:18.056Z,3.80
2019-05-06T14:13:46.520Z,4.87
2019-05-06T14:16:15.092Z,4.13
2019-05-06T14:18:43.657Z,3.57
2019-05-06T14:21:12.526Z,3.80
2019-05-06T14:23:41.052Z,2.40
2019-05-06T14:26:13.937Z,3.03
2019-05-06T14:29:02.311Z,3.00
2019-05-06T14:31:35.076Z,2.87
2019-05-06T14:34:03.748Z,4.27
2019-05-06T14:36:32.893Z,2.30
2019-05-06T14:39:04.654Z,4.57
2019-05-06T14:41:32.710Z,3.43
2019-05-06T14:44:02.654Z,3.03
2019-05-06T14:46:33.253Z,3.50
2019-05-06T14:49:04.225Z,3.07
2019-05-06T14:51:32.919Z,2.47
2019-05-06T14:54:01.500Z,3.70
2019-05-06T14:56:49.817Z,3.30
2019-05-06T14:59:18.276Z,2.83
2019-05-06T15:01:46.771Z,2.97
2019-05-06T15:04:16.492Z,2.77
2019-05-06T15:06:44.968Z,3.40
2019-05-06T15:09:13.617Z,2.67
2019-05-06T15:11:43.481Z,4.10
2019-05-06T15:14:13.097Z,2.80
2019-05-06T15:16:42.347Z,3.03
2019-05-06T15:19:12.874Z,4.10
2019-05-06T15:21:42.743Z,2.87
2019-05-06T15:24:13.771Z,3.03
2019-05-06T15:26:43.064Z,3.27
2019-05-06T15:29:12.706Z,2.83
2019-05-06T15:31:45.624Z,5.63
2019-05-06T15:34:14.885Z,4.17
2019-05-06T15:37:02.354Z,4.67
2019-05-06T15:39:32.681Z,2.77
2019-05-06T15:42:00.896Z,2.87
2019-05-06T15:44:31.929Z,4.17
2019-05-06T15:46:59.665Z,3.77
2019-05-06T15:49:28.151Z,2.50
2019-05-06T15:51:56.626Z,2.97
2019-05-06T15:54:25.193Z,2.03
2019-05-06T15:56:53.664Z,1.93
2019-05-06T15:59:22.954Z,2.33
2019-05-06T16:01:53.188Z,2.87
2019-05-06T16:04:22.899Z,3.70
2019-05-06T16:06:52.979Z,2.60
2019-05-06T16:09:23.434Z,2.77
2019-05-06T16:11:53.381Z,2.87
2019-05-06T16:14:22.985Z,2.77
2019-05-06T16:16:52.847Z,3.40
2019-05-06T16:19:22.868Z,4.90
2019-05-06T16:21:52.396Z,2.67
2019-05-06T16:24:34.581Z,2.33
2019-05-06T16:27:03.085Z,2.33
2019-05-06T16:29:37.647Z,2.87
2019-05-06T16:32:08.362Z,3.87
2019-05-06T16:34:36.928Z,3.40
2019-05-06T16:37:05.746Z,3.47
2019-05-06T16:39:34.372Z,2.43
2019-05-06T16:42:03.756Z,2.93
2019-05-06T16:44:32.763Z,5.00
2019-05-06T16:47:02.885Z,2.30
2019-05-06T16:49:33.536Z,2.37
2019-05-06T16:52:02.541Z,3.73
2019-05-06T16:54:34.431Z,4.33
2019-05-06T16:57:06.485Z,3.63
2019-05-06T16:59:35.048Z,4.30
2019-05-06T17:02:05.220Z,5.60
2019-05-06T17:04:42.869Z,2.83
2019-05-06T17:07:11.853Z,3.17
2019-05-06T17:09:40.436Z,3.27
2019-05-06T17:12:08.968Z,3.67
2019-05-06T17:14:37.536Z,2.77
2019-05-06T17:17:06.004Z,3.63
2019-05-06T17:19:34.569Z,3.80
2019-05-06T17:22:03.218Z,4.20
2019-05-06T17:24:33.065Z,3.60
2019-05-06T17:27:02.683Z,3.10
2019-05-06T17:29:51.280Z,3.80
2019-05-06T17:32:27.445Z,7.97
2019-05-06T17:34:57.897Z,2.60
2019-05-06T17:37:46.003Z,3.00
2019-05-06T17:40:16.672Z,3.20
2019-05-06T17:42:45.281Z,5.77
2019-05-06T17:45:32.730Z,3.17
2019-05-06T17:48:05.844Z,2.77
2019-05-06T17:50:34.473Z,2.80
2019-05-06T17:53:03.110Z,3.27
2019-05-06T17:55:32.761Z,3.70
2019-05-06T17:58:02.453Z,3.63
2019-05-06T18:00:32.364Z,4.63
2019-05-06T18:03:02.530Z,3.77
2019-05-06T18:05:32.517Z,3.00
2019-05-06T18:08:02.829Z,3.43
2019-05-06T18:10:33.461Z,4.73
2019-05-06T18:13:03.117Z,3.30
2019-05-06T18:15:32.627Z,3.90
2019-05-06T18:18:02.156Z,4.20
2019-05-06T18:20:33.360Z,4.33
2019-05-06T18:23:02.095Z,5.50
2019-05-06T18:25:32.849Z,5.27
2019-05-06T18:28:00.994Z,5.10
2019-05-06T18:30:33.616Z,4.70
2019-05-06T18:32:59.730Z,4.77
2019-05-06T18:35:28.291Z,5.27
2019-05-06T18:37:56.752Z,4.63
2019-05-06T18:40:25.281Z,5.43
2019-05-06T18:42:53.841Z,4.40
2019-05-06T18:45:22.364Z,4.47
2019-05-06T18:47:53.036Z,4.03
2019-05-06T18:50:22.046Z,5.00
2019-05-06T18:52:52.859Z,4.80
2019-05-06T18:55:22.384Z,4.67
2019-05-06T18:57:52.793Z,7.10
2019-05-06T19:00:22.608Z,6.00
2019-05-06T19:02:52.215Z,4.83
2019-05-06T19:05:32.489Z,4.73
2019-05-06T19:08:03.296Z,4.70
2019-05-06T19:10:33.436Z,4.70
2019-05-06T19:13:02.101Z,5.33
2019-05-06T19:15:32.891Z,5.20
2019-05-06T19:18:02.257Z,5.93
2019-05-06T19:20:33.660Z,6.00
2019-05-06T19:23:02.326Z,6.50
2019-05-06T19:25:33.961Z,5.17
2019-05-06T19:28:02.253Z,5.83
2019-05-06T19:30:32.365Z,6.83
2019-05-06T19:33:03.060Z,5.73
2019-05-06T19:35:34.632Z,7.80
2019-05-06T19:38:04.823Z,4.70
2019-05-06T19:40:32.251Z,6.30
2019-05-06T19:43:02.802Z,5.90
2019-05-06T19:45:34.396Z,11.77
2019-05-06T19:48:02.968Z,7.03
2019-05-06T19:50:32.958Z,5.90
2019-05-06T19:53:01.795Z,7.67
2019-05-06T19:55:30.320Z,10.33
2019-05-06T19:57:58.810Z,6.63
2019-05-06T20:00:27.345Z,6.70
2019-05-06T20:02:55.987Z,7.83
2019-05-06T20:05:42.272Z,5.97
2019-05-06T20:08:18.256Z,7.63
2019-05-06T20:10:56.264Z,9.13
2019-05-06T20:13:24.840Z,11.73
2019-05-06T20:15:53.300Z,7.17
2019-05-06T20:18:21.853Z,7.10
2019-05-06T20:20:52.656Z,6.97
2019-05-06T20:23:20.601Z,7.00
2019-05-06T20:25:49.133Z,6.90
2019-05-06T20:28:17.700Z,7.73
2019-05-06T20:30:46.163Z,8.23
2019-05-06T20:33:14.664Z,10.27
2019-05-06T20:35:43.476Z,9.23
2019-05-06T20:38:12.453Z,38.97
2019-05-06T20:40:43.063Z,12.50
2019-05-06T20:43:17.535Z,7.97
2019-05-06T20:45:42.821Z,7.73
2019-05-06T20:48:12.910Z,10.90
2019-05-06T20:50:42.934Z,8.67
2019-05-06T20:53:12.120Z,8.57
2019-05-06T20:55:43.147Z,16.40
2019-05-06T20:58:12.242Z,7.20
2019-05-06T21:00:43.002Z,9.60
2019-05-06T21:03:12.291Z,8.93
2019-05-06T21:05:43.191Z,9.07
2019-05-06T21:08:13.006Z,11.23
2019-05-06T21:10:42.697Z,8.30
2019-05-06T21:13:13.375Z,8.43
2019-05-06T21:15:43.229Z,8.77
2019-05-06T21:18:12.282Z,8.03
2019-05-06T21:20:43.356Z,7.77
2019-05-06T21:23:11.143Z,8.63
2019-05-06T21:25:39.770Z,9.00
2019-05-06T21:28:08.309Z,8.10
2019-05-06T21:30:36.888Z,8.40
2019-05-06T21:33:05.349Z,9.60
2019-05-06T21:35:34.278Z,8.23
2019-05-06T21:38:02.836Z,8.30
2019-05-06T21:40:32.301Z,7.83
2019-05-06T21:43:02.042Z,8.33
2019-05-06T21:45:32.901Z,9.13
2019-05-06T21:48:02.765Z,9.10
2019-05-06T21:50:33.104Z,9.73
2019-05-06T21:53:02.733Z,8.70
2019-05-06T21:55:32.380Z,13.10
2019-05-06T21:58:02.125Z,7.63
2019-05-06T22:00:38.550Z,9.20
2019-05-06T22:03:07.228Z,8.60
2019-05-06T22:05:35.792Z,9.80
2019-05-06T22:08:04.320Z,9.73
2019-05-06T22:10:32.966Z,8.20
2019-05-06T22:13:01.513Z,10.27
2019-05-06T22:15:32.296Z,10.90
2019-05-06T22:18:02.406Z,10.73
2019-05-06T22:20:32.761Z,8.60
2019-05-06T22:23:01.323Z,8.97
2019-05-06T22:25:29.897Z,9.00
2019-05-06T22:27:58.418Z,10.63
2019-05-06T22:30:26.882Z,9.53
2019-05-06T22:32:55.447Z,9.50
2019-05-06T22:35:23.989Z,9.23
2019-05-06T22:37:52.988Z,9.37
2019-05-06T22:40:23.703Z,8.90
2019-05-06T22:42:52.827Z,10.23
2019-05-06T22:45:22.273Z,9.27
2019-05-06T22:47:50.863Z,10.90
2019-05-06T22:50:19.462Z,10.63
2019-05-06T22:52:48.026Z,9.00
2019-05-06T22:55:16.725Z,10.87
2019-05-06T22:57:45.213Z,9.90
2019-05-06T23:00:17.026Z,10.03
2019-05-06T23:02:47.225Z,8.90
2019-05-06T23:05:15.765Z,9.30
2019-05-06T23:07:44.262Z,11.50
2019-05-06T23:10:13.040Z,9.87
2019-05-06T23:12:43.397Z,9.47
2019-05-06T23:15:12.206Z,9.70
2019-05-06T23:17:42.120Z,10.87
2019-05-06T23:20:10.870Z,11.60
2019-05-06T23:22:42.168Z,10.77
2019-05-06T23:25:12.276Z,10.00
2019-05-06T23:27:43.830Z,11.83
2019-05-06T23:30:12.575Z,10.33
2019-05-06T23:32:42.267Z,10.80
2019-05-06T23:35:12.807Z,10.17
2019-05-06T23:38:17.516Z,10.93
2019-05-06T23:41:22.206Z,10.83
2019-05-06T23:44:26.793Z,10.53
2019-05-06T23:47:31.564Z,10.27
2019-05-06T23:50:36.089Z,10.27
2019-05-06T23:53:40.761Z,11.50
2019-05-06T23:56:39.871Z,10.93
2019-05-06T23:59:12.383Z,10.70
